createdAt,value
2023-01-17T00:01:45.279Z,30.60
2023-01-17T00:04:36.676Z,30.50
2023-01-17T00:07:31.144Z,34.10
2023-01-17T00:10:09.652Z,37.30
2023-01-17T00:12:49.404Z,36.90
2023-01-17T00:15:24.641Z,33.80
2023-01-17T00:17:58.886Z,33.20
2023-01-17T00:20:52.256Z,30.70
2023-01-17T00:23:45.846Z,26.90
2023-01-17T00:26:21.470Z,34.80
2023-01-17T00:28:54.207Z,41.60
2023-01-17T00:31:27.080Z,41.30
2023-01-17T00:33:59.520Z,38.00
2023-01-17T00:36:32.035Z,38.40
2023-01-17T00:39:04.697Z,37.00
2023-01-17T00:41:37.656Z,27.50
2023-01-17T00:44:29.128Z,38.10
2023-01-17T00:47:20.473Z,41.80
2023-01-17T00:50:11.677Z,40.60
2023-01-17T00:53:03.114Z,39.50
2023-01-17T00:55:55.397Z,32.70
2023-01-17T00:58:46.988Z,31.00
2023-01-17T01:01:38.609Z,31.40
2023-01-17T01:04:29.921Z,33.50
2023-01-17T01:07:21.621Z,40.10
2023-01-17T01:10:13.115Z,43.90
2023-01-17T01:13:04.458Z,45.50
2023-01-17T01:15:56.014Z,43.00
2023-01-17T01:18:47.258Z,37.50
2023-01-17T01:21:38.281Z,31.90
2023-01-17T01:24:29.817Z,43.50
2023-01-17T01:27:21.457Z,49.80
2023-01-17T01:30:12.971Z,51.60
2023-01-17T01:33:04.489Z,36.40
2023-01-17T01:35:38.880Z,40.30
2023-01-17T01:38:13.132Z,32.80
2023-01-17T01:40:53.136Z,30.10
2023-01-17T01:43:47.957Z,45.20
2023-01-17T01:46:28.423Z,44.00
2023-01-17T01:49:07.385Z,37.90
2023-01-17T01:51:47.199Z,37.90
2023-01-17T01:54:28.952Z,39.60
2023-01-17T01:57:08.438Z,35.90
2023-01-17T01:59:48.799Z,45.00
2023-01-17T02:02:22.871Z,46.80
2023-01-17T02:04:57.686Z,41.80
2023-01-17T02:07:39.116Z,38.70
2023-01-17T02:10:14.193Z,36.80
2023-01-17T02:12:49.184Z,35.20
2023-01-17T02:15:29.574Z,33.10
2023-01-17T02:18:17.836Z,39.60
2023-01-17T02:21:33.944Z,37.30
2023-01-17T02:24:49.117Z,28.80
2023-01-17T02:27:36.082Z,26.10
2023-01-17T02:30:36.179Z,27.20
2023-01-17T02:33:30.237Z,26.40
2023-01-17T02:36:12.269Z,17.40
2023-01-17T02:38:58.093Z,19.30
2023-01-17T02:41:37.388Z,14.50
2023-01-17T02:44:17.596Z,19.30
2023-01-17T02:46:53.918Z,8.60
2023-01-17T02:49:32.761Z,14.10
2023-01-17T02:52:31.505Z,15.00
2023-01-17T02:55:21.191Z,9.60
2023-01-17T02:58:17.000Z,9.80
2023-01-17T03:01:03.947Z,12.60
2023-01-17T03:03:48.953Z,9.00
2023-01-17T03:06:31.427Z,9.20
2023-01-17T03:09:07.418Z,9.50
2023-01-17T03:11:42.243Z,10.10
2023-01-17T03:14:16.099Z,9.20
2023-01-17T03:16:50.104Z,12.10
2023-01-17T03:19:23.779Z,8.20
2023-01-17T03:21:57.507Z,7.70
2023-01-17T03:24:31.561Z,10.10
2023-01-17T03:27:05.728Z,6.80
2023-01-17T03:29:39.972Z,7.70
2023-01-17T03:32:13.738Z,7.20
2023-01-17T03:34:47.396Z,4.20
2023-01-17T03:37:21.405Z,6.50
2023-01-17T03:39:55.732Z,5.60
2023-01-17T03:42:29.675Z,7.00
2023-01-17T03:45:03.543Z,4.00
2023-01-17T03:47:39.033Z,5.30
2023-01-17T03:50:15.395Z,5.90
2023-01-17T03:52:49.583Z,7.20
2023-01-17T03:55:23.574Z,6.10
2023-01-17T03:57:57.347Z,5.50
2023-01-17T04:00:31.147Z,7.10
2023-01-17T04:03:04.969Z,8.70
2023-01-17T04:05:38.795Z,6.90
2023-01-17T04:08:12.482Z,7.40
2023-01-17T04:10:46.327Z,11.20
2023-01-17T04:13:20.594Z,8.80
2023-01-17T04:15:55.944Z,12.60
2023-01-17T04:18:30.889Z,9.90
2023-01-17T04:21:04.791Z,10.70
2023-01-17T04:23:38.921Z,12.20
2023-01-17T04:26:14.732Z,14.40
2023-01-17T04:28:48.469Z,13.90
2023-01-17T04:31:22.176Z,12.90
2023-01-17T04:33:56.003Z,13.10
2023-01-17T04:36:29.949Z,12.40
2023-01-17T04:39:04.343Z,14.10
2023-01-17T04:41:38.637Z,12.90
2023-01-17T04:44:12.393Z,14.00
2023-01-17T04:46:46.104Z,10.90
2023-01-17T04:49:20.193Z,12.60
2023-01-17T04:51:53.877Z,13.10
2023-01-17T04:54:27.621Z,14.40
2023-01-17T04:57:01.471Z,10.40
2023-01-17T04:59:35.341Z,12.10
2023-01-17T05:02:09.274Z,11.00
2023-01-17T05:04:43.693Z,10.80
2023-01-17T05:07:17.947Z,10.10
2023-01-17T05:09:51.935Z,8.40
2023-01-17T05:12:25.990Z,8.00
2023-01-17T05:14:59.903Z,6.80
2023-01-17T05:17:33.660Z,6.90
2023-01-17T05:20:10.449Z,7.40
2023-01-17T05:22:44.058Z,8.50
2023-01-17T05:25:18.269Z,7.30
2023-01-17T05:27:52.043Z,5.80
2023-01-17T05:30:26.336Z,4.90
2023-01-17T05:33:01.619Z,6.00
2023-01-17T05:35:36.657Z,5.50
2023-01-17T05:38:10.413Z,5.20
2023-01-17T05:40:44.227Z,6.60
2023-01-17T05:43:18.193Z,5.50
2023-01-17T05:45:53.508Z,5.60
2023-01-17T05:48:27.236Z,5.50
2023-01-17T05:51:01.994Z,7.10
2023-01-17T05:53:35.995Z,6.00
2023-01-17T05:56:10.450Z,4.90
2023-01-17T05:58:44.242Z,5.20
2023-01-17T06:01:19.726Z,4.80
2023-01-17T06:03:53.580Z,6.30
2023-01-17T06:06:27.388Z,6.50
2023-01-17T06:09:01.816Z,6.50
2023-01-17T06:11:36.142Z,9.70
2023-01-17T06:14:11.033Z,7.30
2023-01-17T06:16:44.958Z,6.90
2023-01-17T06:19:18.651Z,6.00
2023-01-17T06:21:52.546Z,7.60
2023-01-17T06:24:26.335Z,6.90
2023-01-17T06:27:00.255Z,7.10
2023-01-17T06:29:34.106Z,4.60
2023-01-17T06:32:08.798Z,5.20
2023-01-17T06:34:43.680Z,5.50
2023-01-17T06:37:17.460Z,9.10
2023-01-17T06:39:51.889Z,6.70
2023-01-17T06:42:26.200Z,6.80
2023-01-17T06:45:00.271Z,6.30
2023-01-17T06:47:34.149Z,7.80
2023-01-17T06:50:10.091Z,7.30
2023-01-17T06:52:44.701Z,7.00
2023-01-17T06:55:18.572Z,9.70
2023-01-17T06:57:52.643Z,12.80
2023-01-17T07:00:29.515Z,13.30
2023-01-17T07:03:03.586Z,14.40
2023-01-17T07:05:41.632Z,18.60
2023-01-17T07:08:17.156Z,20.40
2023-01-17T07:10:51.702Z,21.60
2023-01-17T07:13:25.895Z,14.80
2023-01-17T07:16:01.278Z,13.10
2023-01-17T07:18:36.937Z,18.60
2023-01-17T07:21:17.493Z,19.90
2023-01-17T07:23:51.423Z,16.80
2023-01-17T07:26:25.369Z,14.40
2023-01-17T07:28:59.635Z,11.90
2023-01-17T07:31:35.426Z,11.10
2023-01-17T07:34:09.625Z,16.00
2023-01-17T07:36:43.876Z,17.20
2023-01-17T07:39:18.436Z,16.90
2023-01-17T07:41:52.404Z,12.30
2023-01-17T07:44:26.932Z,18.30
2023-01-17T07:47:00.995Z,13.10
2023-01-17T07:49:34.748Z,13.00
2023-01-17T07:52:09.171Z,11.40
2023-01-17T07:54:43.070Z,8.80
2023-01-17T07:57:18.137Z,9.00
2023-01-17T07:59:54.916Z,8.10
2023-01-17T08:02:28.731Z,8.80
2023-01-17T08:05:02.689Z,6.90
2023-01-17T08:07:37.290Z,9.90
2023-01-17T08:10:18.225Z,8.00
2023-01-17T08:12:52.963Z,6.20
2023-01-17T08:15:27.157Z,11.70
2023-01-17T08:18:01.922Z,11.00
2023-01-17T08:20:36.063Z,9.50
2023-01-17T08:23:10.105Z,6.60
2023-01-17T08:25:45.364Z,6.60
2023-01-17T08:28:20.666Z,7.80
2023-01-17T08:30:55.231Z,5.50
2023-01-17T08:33:29.344Z,5.80
2023-01-17T08:36:03.983Z,10.00
2023-01-17T08:38:38.556Z,7.10
2023-01-17T08:41:13.057Z,8.20
2023-01-17T08:43:47.762Z,7.40
2023-01-17T08:46:23.086Z,9.30
2023-01-17T08:49:01.462Z,10.70
2023-01-17T08:51:35.507Z,9.70
2023-01-17T08:54:12.978Z,10.10
2023-01-17T08:56:47.896Z,11.30
2023-01-17T08:59:21.912Z,13.90
2023-01-17T09:01:58.292Z,11.40
2023-01-17T09:04:32.558Z,12.50
2023-01-17T09:07:09.081Z,9.70
2023-01-17T09:09:43.447Z,9.50
2023-01-17T09:12:17.448Z,11.10
2023-01-17T09:14:51.961Z,15.30
2023-01-17T09:17:26.230Z,14.30
2023-01-17T09:20:00.275Z,9.70
2023-01-17T09:22:36.032Z,12.70
2023-01-17T09:25:11.658Z,12.80
2023-01-17T09:27:49.315Z,15.20
2023-01-17T09:30:24.341Z,14.30
2023-01-17T09:32:58.700Z,12.70
2023-01-17T09:35:32.532Z,16.20
2023-01-17T09:38:09.602Z,13.30
2023-01-17T09:40:50.392Z,16.20
2023-01-17T09:43:45.902Z,10.40
2023-01-17T09:46:26.957Z,9.80
2023-01-17T09:49:13.059Z,6.60
2023-01-17T09:51:47.198Z,11.80
2023-01-17T09:54:28.750Z,4.70
2023-01-17T09:57:13.171Z,4.90
2023-01-17T10:00:03.660Z,5.40
2023-01-17T10:09:24.224Z,4.30
2023-01-17T10:12:29.901Z,4.80
2023-01-17T10:15:37.853Z,4.60
2023-01-17T10:18:36.179Z,3.70
2023-01-17T10:21:21.732Z,2.60
2023-01-17T10:24:28.378Z,3.70
2023-01-17T10:27:17.302Z,3.10
2023-01-17T10:29:54.340Z,3.40
2023-01-17T10:32:34.376Z,2.70
2023-01-17T10:35:23.040Z,3.00
2023-01-17T10:37:59.767Z,2.40
2023-01-17T10:40:44.455Z,2.80
2023-01-17T10:43:28.988Z,3.30
2023-01-17T10:46:06.044Z,2.80
2023-01-17T10:48:47.603Z,3.50
2023-01-17T10:51:44.277Z,3.30
2023-01-17T10:54:41.914Z,1.60
2023-01-17T10:57:23.705Z,1.70
2023-01-17T11:00:02.796Z,4.30
2023-01-17T11:02:43.523Z,3.70
2023-01-17T11:05:28.876Z,3.70
2023-01-17T11:08:06.073Z,2.00
2023-01-17T11:10:47.119Z,2.60
2023-01-17T11:13:35.806Z,2.90
2023-01-17T11:16:19.535Z,2.30
2023-01-17T11:19:16.498Z,3.30
2023-01-17T11:22:03.151Z,4.40
2023-01-17T11:24:41.644Z,3.80
2023-01-17T11:27:30.841Z,4.20
2023-01-17T11:30:18.804Z,3.50
2023-01-17T11:33:06.768Z,3.10
2023-01-17T11:35:47.705Z,3.00
2023-01-17T11:38:25.945Z,3.00
2023-01-17T11:41:21.036Z,5.60
2023-01-17T11:43:58.292Z,5.90
2023-01-17T11:46:33.329Z,4.00
2023-01-17T11:49:07.651Z,6.60
2023-01-17T11:51:44.858Z,3.30
2023-01-17T11:54:24.773Z,3.70
2023-01-17T11:57:05.039Z,3.90
2023-01-17T11:59:43.894Z,4.50
2023-01-17T12:03:22.034Z,5.50
2023-01-17T12:06:09.752Z,4.10
2023-01-17T12:09:04.560Z,3.70
2023-01-17T12:12:05.366Z,3.90
2023-01-17T12:14:57.351Z,4.20
2023-01-17T12:17:55.277Z,4.10
2023-01-17T12:20:41.515Z,4.30
2023-01-17T12:23:47.395Z,3.50
2023-01-17T12:26:38.868Z,3.80
2023-01-17T12:29:43.396Z,4.90
2023-01-17T12:32:48.489Z,4.10
2023-01-17T12:35:31.764Z,4.30
2023-01-17T12:38:27.280Z,4.00
2023-01-17T12:41:12.735Z,3.50
2023-01-17T12:43:48.042Z,3.70
2023-01-17T12:46:30.212Z,2.40
2023-01-17T12:49:25.282Z,4.90
2023-01-17T12:52:13.047Z,3.90
2023-01-17T12:54:54.676Z,3.80
2023-01-17T12:57:35.497Z,3.30
2023-01-17T13:00:19.937Z,3.40
2023-01-17T13:03:02.832Z,4.20
2023-01-17T13:05:43.011Z,2.80
2023-01-17T13:08:30.456Z,3.00
2023-01-17T13:11:13.085Z,3.70
2023-01-17T13:13:51.422Z,6.20
2023-01-17T13:16:34.348Z,3.70
2023-01-17T13:19:21.652Z,4.00
2023-01-17T13:21:57.887Z,3.60
2023-01-17T13:24:43.523Z,3.20
2023-01-17T13:28:14.829Z,3.90
2023-01-17T13:31:40.321Z,6.10
2023-01-17T13:34:44.355Z,4.50
2023-01-17T13:37:53.254Z,4.50
2023-01-17T13:40:37.152Z,3.70
2023-01-17T13:43:22.593Z,2.80
2023-01-17T13:46:00.448Z,3.80
2023-01-17T13:48:38.452Z,5.00
2023-01-17T13:51:14.589Z,5.40
2023-01-17T13:53:52.459Z,3.90
2023-01-17T13:56:36.229Z,3.60
2023-01-17T13:59:31.420Z,3.20
2023-01-17T14:02:27.480Z,3.30
2023-01-17T14:05:23.206Z,3.60
2023-01-17T14:08:03.554Z,3.50
2023-01-17T14:10:45.258Z,3.40
2023-01-17T14:13:38.632Z,4.10
2023-01-17T14:16:31.433Z,3.00
2023-01-17T14:19:06.259Z,3.40
2023-01-17T14:21:40.752Z,4.10
2023-01-17T14:24:21.448Z,3.50
2023-01-17T14:27:14.449Z,3.40
2023-01-17T14:30:00.845Z,4.90
2023-01-17T14:32:39.585Z,2.80
2023-01-17T14:35:28.439Z,2.80
2023-01-17T14:38:05.548Z,4.90
2023-01-17T14:40:43.377Z,4.00
2023-01-17T14:43:22.499Z,3.00
2023-01-17T14:46:05.291Z,2.30
2023-01-17T14:48:44.481Z,3.40
2023-01-17T14:51:23.194Z,4.20
2023-01-17T14:54:05.338Z,5.40
2023-01-17T14:56:40.904Z,4.60
2023-01-17T14:59:24.083Z,5.10
2023-01-17T15:02:08.206Z,4.20
2023-01-17T15:04:43.082Z,3.70
2023-01-17T15:07:20.888Z,5.10
2023-01-17T15:09:55.519Z,4.40
2023-01-17T15:12:29.968Z,6.20
2023-01-17T15:15:05.700Z,4.50
2023-01-17T15:17:39.843Z,6.30
2023-01-17T15:20:22.210Z,5.50
2023-01-17T15:22:56.125Z,5.30
2023-01-17T15:25:30.637Z,5.60
2023-01-17T15:28:06.865Z,6.90
2023-01-17T15:30:58.310Z,4.70
2023-01-17T15:33:35.938Z,6.60
2023-01-17T15:36:18.733Z,5.00
2023-01-17T15:39:00.282Z,5.60
2023-01-17T15:41:38.667Z,5.40
2023-01-17T15:44:31.141Z,5.40
2023-01-17T15:47:29.870Z,5.90
2023-01-17T15:50:27.964Z,6.00
2023-01-17T15:53:04.809Z,5.30
2023-01-17T15:55:41.039Z,7.70
2023-01-17T15:58:30.169Z,10.40
2023-01-17T16:01:04.345Z,8.70
2023-01-17T16:03:38.527Z,10.50
2023-01-17T16:06:46.007Z,11.80
2023-01-17T16:09:27.281Z,11.30
2023-01-17T16:12:02.031Z,14.60
2023-01-17T16:14:51.505Z,21.20
2023-01-17T16:17:31.855Z,21.10
2023-01-17T16:20:07.117Z,20.20
2023-01-17T16:22:40.921Z,21.50
2023-01-17T16:25:21.634Z,17.70
2023-01-17T16:27:56.151Z,14.20
2023-01-17T16:30:31.421Z,11.00
2023-01-17T16:33:05.767Z,9.00
2023-01-17T16:35:40.343Z,13.30
2023-01-17T16:38:17.731Z,7.70
2023-01-17T16:40:52.381Z,16.30
2023-01-17T16:43:26.280Z,17.20
2023-01-17T16:46:00.358Z,24.20
2023-01-17T16:48:34.450Z,24.10
2023-01-17T16:51:09.984Z,37.00
2023-01-17T16:53:43.777Z,36.90
2023-01-17T16:56:21.237Z,39.50
2023-01-17T16:58:56.414Z,36.00
2023-01-17T17:01:30.718Z,41.00
2023-01-17T17:04:04.744Z,44.10
2023-01-17T17:06:38.684Z,37.80
2023-01-17T17:09:12.541Z,36.00
2023-01-17T17:11:47.435Z,43.60
2023-01-17T17:14:21.872Z,51.80
2023-01-17T17:16:56.027Z,49.50
2023-01-17T17:19:30.011Z,49.30
2023-01-17T17:22:06.759Z,58.60
2023-01-17T17:24:40.501Z,59.90
2023-01-17T17:27:14.281Z,50.10
2023-01-17T17:29:48.397Z,46.30
2023-01-17T17:32:22.846Z,52.50
2023-01-17T17:34:56.720Z,42.80
2023-01-17T17:37:30.661Z,46.20
2023-01-17T17:40:05.465Z,50.50
2023-01-17T17:42:39.287Z,51.20
2023-01-17T17:45:14.686Z,52.30
2023-01-17T17:47:48.722Z,48.80
2023-01-17T17:50:22.646Z,41.10
2023-01-17T17:52:56.818Z,44.60
2023-01-17T17:55:30.856Z,61.70
2023-01-17T17:58:04.630Z,60.50
2023-01-17T18:00:38.532Z,60.00
2023-01-17T18:03:12.361Z,59.00
2023-01-17T18:05:47.184Z,65.90
2023-01-17T18:08:22.832Z,75.00
2023-01-17T18:11:02.941Z,62.80
2023-01-17T18:13:37.186Z,72.40
2023-01-17T18:16:14.682Z,65.10
2023-01-17T18:18:51.453Z,48.50
2023-01-17T18:21:28.209Z,66.40
2023-01-17T18:24:05.263Z,61.10
2023-01-17T18:26:43.356Z,61.10
2023-01-17T18:29:19.696Z,61.70
2023-01-17T18:31:56.024Z,66.20
2023-01-17T18:34:31.231Z,76.30
2023-01-17T18:37:05.729Z,75.70
2023-01-17T18:39:39.860Z,70.00
2023-01-17T18:42:13.722Z,52.90
2023-01-17T18:44:48.020Z,54.10
2023-01-17T18:47:22.170Z,52.60
2023-01-17T18:49:56.317Z,51.80
2023-01-17T18:52:30.382Z,50.60
2023-01-17T18:55:04.365Z,55.10
2023-01-17T18:57:38.748Z,46.10
2023-01-17T19:00:16.863Z,52.60
2023-01-17T19:08:20.667Z,83.50
2023-01-17T19:10:55.509Z,66.60
2023-01-17T19:13:30.986Z,55.80
2023-01-17T19:16:08.046Z,66.20
2023-01-17T19:18:42.488Z,68.70
2023-01-17T19:21:19.968Z,72.40
2023-01-17T19:23:55.252Z,65.90
2023-01-17T19:26:30.208Z,60.60
2023-01-17T19:29:05.384Z,71.10
2023-01-17T19:31:43.316Z,67.10
2023-01-17T19:34:19.572Z,59.10
2023-01-17T19:36:55.144Z,62.00
2023-01-17T19:39:31.188Z,68.50
2023-01-17T19:42:05.060Z,54.20
2023-01-17T19:44:38.811Z,63.30
2023-01-17T19:47:13.550Z,57.60
2023-01-17T19:49:47.337Z,61.80
2023-01-17T19:52:22.478Z,52.00
2023-01-17T19:54:56.741Z,47.10
2023-01-17T19:57:35.014Z,46.80
2023-01-17T20:00:14.378Z,39.50
2023-01-17T20:02:49.724Z,44.20
2023-01-17T20:05:24.262Z,50.10
2023-01-17T20:07:58.975Z,35.20
2023-01-17T20:10:33.531Z,31.90
2023-01-17T20:13:08.137Z,29.50
2023-01-17T20:15:42.086Z,26.70
2023-01-17T20:18:16.032Z,35.50
2023-01-17T20:20:56.866Z,34.20
2023-01-17T20:23:34.338Z,25.60
2023-01-17T20:26:09.147Z,41.80
2023-01-17T20:28:46.790Z,41.10
2023-01-17T20:31:24.008Z,43.10
2023-01-17T20:33:58.971Z,43.80
2023-01-17T20:36:33.257Z,45.30
2023-01-17T20:39:11.145Z,42.00
2023-01-17T20:41:46.714Z,47.60
2023-01-17T20:44:21.109Z,49.90
2023-01-17T20:46:54.902Z,45.90
2023-01-17T20:49:29.015Z,41.00
2023-01-17T20:52:05.795Z,41.80
2023-01-17T20:54:39.991Z,45.30
2023-01-17T20:57:13.733Z,47.80
2023-01-17T20:59:48.584Z,43.90
2023-01-17T21:02:22.703Z,60.00
2023-01-17T21:04:56.715Z,58.70
2023-01-17T21:07:30.679Z,52.10
2023-01-17T21:10:05.178Z,52.00
2023-01-17T21:12:39.318Z,48.70
2023-01-17T21:15:17.678Z,55.20
2023-01-17T21:17:52.019Z,54.50
2023-01-17T21:20:27.478Z,62.60
2023-01-17T21:23:01.376Z,63.90
2023-01-17T21:25:35.093Z,51.80
2023-01-17T21:28:09.409Z,55.00
2023-01-17T21:30:43.464Z,50.10
2023-01-17T21:33:17.358Z,50.30
2023-01-17T21:35:54.127Z,45.30
2023-01-17T21:38:28.172Z,40.30
2023-01-17T21:41:02.399Z,41.20
2023-01-17T21:43:36.408Z,44.00
2023-01-17T21:46:10.886Z,36.60
2023-01-17T21:48:45.575Z,37.70
2023-01-17T21:51:21.867Z,40.60
2023-01-17T21:53:55.943Z,33.70
2023-01-17T21:56:47.469Z,33.10
2023-01-17T21:59:21.893Z,32.10
2023-01-17T22:01:55.960Z,33.80
2023-01-17T22:04:29.825Z,32.80
2023-01-17T22:07:03.478Z,36.40
2023-01-17T22:09:37.170Z,37.40
2023-01-17T22:12:11.831Z,39.30
2023-01-17T22:14:45.722Z,35.70
2023-01-17T22:17:21.077Z,33.70
2023-01-17T22:19:55.066Z,36.80
2023-01-17T22:22:32.312Z,30.60
2023-01-17T22:25:06.640Z,31.80
2023-01-17T22:27:40.435Z,31.20
2023-01-17T22:30:16.918Z,33.00
2023-01-17T22:32:50.878Z,32.80
2023-01-17T22:35:24.884Z,36.90
2023-01-17T22:37:58.795Z,31.00
2023-01-17T22:40:36.428Z,32.50
2023-01-17T22:43:10.288Z,33.00
2023-01-17T22:45:45.980Z,33.20
2023-01-17T22:48:20.194Z,28.90
2023-01-17T22:50:57.826Z,32.80
2023-01-17T22:53:32.546Z,40.10
2023-01-17T22:56:10.737Z,36.10
2023-01-17T22:58:45.848Z,35.40
2023-01-17T23:01:22.621Z,28.50
2023-01-17T23:03:58.901Z,28.70
2023-01-17T23:06:35.267Z,33.90
2023-01-17T23:09:12.102Z,34.90
2023-01-17T23:11:49.973Z,35.80
2023-01-17T23:14:26.965Z,34.30
2023-01-17T23:17:20.877Z,32.70
2023-01-17T23:19:56.117Z,33.30
2023-01-17T23:22:32.599Z,32.70
2023-01-17T23:25:11.004Z,30.60
2023-01-17T23:28:04.591Z,28.00
2023-01-17T23:30:41.665Z,26.80
2023-01-17T23:33:17.987Z,30.60
2023-01-17T23:35:51.733Z,34.30
2023-01-17T23:38:29.480Z,33.30
2023-01-17T23:41:27.404Z,33.40
2023-01-17T23:44:02.009Z,33.90
2023-01-17T23:46:35.976Z,29.90
2023-01-17T23:49:10.110Z,33.40
2023-01-17T23:51:43.771Z,35.90
2023-01-17T23:54:17.666Z,33.10
2023-01-17T23:56:51.534Z,33.80
2023-01-17T23:59:25.731Z,33.70
